Hyderabad, Pakistan
Current Conditions -  °F | °C
As of 9:55 PM on Saturday 25 Oct 2014 (Local Time) from OPNH Reporting Station
Haze Haze  
Wind Chill: 26°   Ceiling: Unl
Heat Index: 27°   Visibility: 3mi
Dew Point: 15°   Wind: 2mph
Humidity: 51%   Direction: 315°NW
Pressure: 29.88"   Gusts: NA
Location:  25.38°N, 68.37°E
Report Text: OPNH 251655Z 31502KT 5000 HZ NSC 26/15 Q1012
Loading
Personal Weather Stations






























Interactive Weather Map
Tropical Storm Tracking
New forecast layout! Learn more

10-Day Weather Forecast

Advertisements
Track Severe Weather on mobile